Keenesburg, Colorado
Current Conditions -  °F | °C
As of 6:53 PM on Thursday 20 Nov 2014 (Local Time) from KDEN Reporting Station
Broken Clouds Broken Clouds  
Wind Chill: 34°   Ceiling: 14000
Heat Index: 39°   Visibility: 10mi
Dew Point: 26°   Wind: 7mph
Humidity: 60%   Direction: 240°WSW
Pressure: 29.97"   Gusts: NA
Location:  40.11°N, 104.52°W
Report Text: KDEN 210153Z 24006KT 10SM SCT090 SCT110 BKN140 04/M03 A2997 RMK AO2 SLP157 T00391033
Loading
Personal Weather Stations






























Interactive Weather Map New forecast layout! Learn more

10-Day Weather Forecast

Advertisements
Track Severe Weather on mobile